sensor_id;sensor_type;location;lat;lon;timestamp;pressure;altitude;pressure_sealevel;temperature;humidity
6387;BME280;3226;42.162;24.756;2022-12-24T00:01:18;99581.91;;;-0.42;100.00
6387;BME280;3226;42.162;24.756;2022-12-24T00:03:48;99581.84;;;-0.18;100.00
6387;BME280;3226;42.162;24.756;2022-12-24T00:06:17;99580.97;;;-0.17;100.00
6387;BME280;3226;42.162;24.756;2022-12-24T00:08:45;99585.75;;;-0.30;100.00
6387;BME280;3226;42.162;24.756;2022-12-24T00:11:13;99588.66;;;-0.39;100.00
6387;BME280;3226;42.162;24.756;2022-12-24T00:13:42;99592.75;;;-0.34;100.00
6387;BME280;3226;42.162;24.756;2022-12-24T00:16:10;99594.53;;;-0.36;100.00
6387;BME280;3226;42.162;24.756;2022-12-24T00:18:38;99589.44;;;-0.37;100.00
6387;BME280;3226;42.162;24.756;2022-12-24T00:21:14;99591.06;;;-0.35;100.00
6387;BME280;3226;42.162;24.756;2022-12-24T00:23:42;99595.31;;;-0.34;100.00
6387;BME280;3226;42.162;24.756;2022-12-24T00:26:10;99595.63;;;-0.19;100.00
6387;BME280;3226;42.162;24.756;2022-12-24T00:28:39;99586.44;;;-0.04;100.00
6387;BME280;3226;42.162;24.756;2022-12-24T00:31:09;99595.16;;;-0.07;100.00
6387;BME280;3226;42.162;24.756;2022-12-24T00:33:37;99577.03;;;-0.26;100.00
6387;BME280;3226;42.162;24.756;2022-12-24T00:36:06;99591.03;;;-0.11;100.00
6387;BME280;3226;42.162;24.756;2022-12-24T00:38:36;99585.03;;;-0.11;100.00
6387;BME280;3226;42.162;24.756;2022-12-24T00:41:06;99586.22;;;-0.20;100.00
6387;BME280;3226;42.162;24.756;2022-12-24T00:43:51;99581.72;;;-0.37;100.00
6387;BME280;3226;42.162;24.756;2022-12-24T00:46:19;99586.53;;;-0.28;100.00
6387;BME280;3226;42.162;24.756;2022-12-24T00:48:47;99589.22;;;-0.31;100.00
6387;BME280;3226;42.162;24.756;2022-12-24T00:51:15;99567.53;;;-0.25;100.00
6387;BME280;3226;42.162;24.756;2022-12-24T00:53:45;99581.16;;;-0.22;100.00
6387;BME280;3226;42.162;24.756;2022-12-24T00:56:13;99579.19;;;-0.15;100.00
6387;BME280;3226;42.162;24.756;2022-12-24T00:58:42;99583.72;;;0.01;100.00
6387;BME280;3226;42.162;24.756;2022-12-24T01:01:10;99583.00;;;-0.25;100.00
6387;BME280;3226;42.162;24.756;2022-12-24T01:03:38;99582.66;;;-0.16;100.00
6387;BME280;3226;42.162;24.756;2022-12-24T01:06:08;99569.22;;;-0.24;100.00
6387;BME280;3226;42.162;24.756;2022-12-24T01:08:35;99572.09;;;-0.10;100.00
6387;BME280;3226;42.162;24.756;2022-12-24T01:11:06;99576.84;;;0.01;100.00
6387;BME280;3226;42.162;24.756;2022-12-24T01:13:35;99578.44;;;0.04;100.00
6387;BME280;3226;42.162;24.756;2022-12-24T01:16:12;99577.16;;;0.14;100.00
6387;BME280;3226;42.162;24.756;2022-12-24T01:18:41;99545.84;;;0.03;98.75
6387;BME280;3226;42.162;24.756;2022-12-24T01:21:09;99563.50;;;0.12;98.88
6387;BME280;3226;42.162;24.756;2022-12-24T01:23:37;99557.84;;;0.04;100.00
6387;BME280;3226;42.162;24.756;2022-12-24T01:26:07;99556.72;;;-0.11;100.00
6387;BME280;3226;42.162;24.756;2022-12-24T01:28:35;99554.97;;;0.11;99.97
6387;BME280;3226;42.162;24.756;2022-12-24T01:31:09;99557.47;;;-0.09;99.73
6387;BME280;3226;42.162;24.756;2022-12-24T01:33:37;99554.22;;;0.08;99.21
6387;BME280;3226;42.162;24.756;2022-12-24T01:36:05;99536.97;;;0.10;99.21
6387;BME280;3226;42.162;24.756;2022-12-24T01:38:34;99465.59;;;-0.50;98.85
6387;BME280;3226;42.162;24.756;2022-12-24T01:41:02;99554.69;;;0.18;99.22
6387;BME280;3226;42.162;24.756;2022-12-24T01:43:49;99545.25;;;-0.04;98.68
6387;BME280;3226;42.162;24.756;2022-12-24T01:46:19;99548.94;;;0.11;98.64
6387;BME280;3226;42.162;24.756;2022-12-24T01:48:52;99552.16;;;0.16;98.56
6387;BME280;3226;42.162;24.756;2022-12-24T01:51:26;99555.91;;;0.09;98.62
6387;BME280;3226;42.162;24.756;2022-12-24T01:53:57;99555.13;;;-0.14;98.72
6387;BME280;3226;42.162;24.756;2022-12-24T01:56:27;99555.75;;;-0.09;99.94
6387;BME280;3226;42.162;24.756;2022-12-24T01:59:02;99546.88;;;-0.02;99.97
6387;BME280;3226;42.162;24.756;2022-12-24T02:01:31;99553.78;;;-0.24;100.00
6387;BME280;3226;42.162;24.756;2022-12-24T02:04:04;99552.53;;;-0.14;100.00
6387;BME280;3226;42.162;24.756;2022-12-24T02:06:35;99544.56;;;-0.08;99.95
6387;BME280;3226;42.162;24.756;2022-12-24T02:09:03;99549.69;;;0.14;99.49
6387;BME280;3226;42.162;24.756;2022-12-24T02:11:33;99550.88;;;-0.15;99.00
6387;BME280;3226;42.162;24.756;2022-12-24T02:14:07;99547.78;;;-0.03;99.46
6387;BME280;3226;42.162;24.756;2022-12-24T02:16:45;99543.59;;;-0.05;99.21
6387;BME280;3226;42.162;24.756;2022-12-24T02:22:34;99544.75;;;-0.35;99.17
6387;BME280;3226;42.162;24.756;2022-12-24T02:25:25;99544.03;;;-0.16;99.82
6387;BME280;3226;42.162;24.756;2022-12-24T02:28:07;99544.19;;;0.02;99.75
6387;BME280;3226;42.162;24.756;2022-12-24T02:30:44;99546.13;;;-0.04;98.52
6387;BME280;3226;42.162;24.756;2022-12-24T02:33:22;99551.50;;;-0.10;99.33
6387;BME280;3226;42.162;24.756;2022-12-24T02:35:58;99554.44;;;-0.19;99.43
6387;BME280;3226;42.162;24.756;2022-12-24T02:38:30;99542.59;;;-0.46;100.00
6387;BME280;3226;42.162;24.756;2022-12-24T02:41:01;99552.66;;;-0.17;100.00
6387;BME280;3226;42.162;24.756;2022-12-24T02:43:33;99560.97;;;-0.33;100.00
6387;BME280;3226;42.162;24.756;2022-12-24T02:46:06;99563.00;;;-0.41;100.00
6387;BME280;3226;42.162;24.756;2022-12-24T02:48:36;99563.38;;;-0.50;100.00
6387;BME280;3226;42.162;24.756;2022-12-24T02:51:08;99559.94;;;-0.28;100.00
6387;BME280;3226;42.162;24.756;2022-12-24T02:53:37;99567.91;;;-0.35;100.00
6387;BME280;3226;42.162;24.756;2022-12-24T02:56:21;99576.81;;;-0.21;100.00
6387;BME280;3226;42.162;24.756;2022-12-24T02:59:12;99573.19;;;-0.16;100.00
6387;BME280;3226;42.162;24.756;2022-12-24T03:01:54;99571.38;;;-0.36;100.00
6387;BME280;3226;42.162;24.756;2022-12-24T03:04:31;99544.75;;;-0.57;100.00
6387;BME280;3226;42.162;24.756;2022-12-24T03:07:15;99557.56;;;-0.33;100.00
6387;BME280;3226;42.162;24.756;2022-12-24T03:09:55;99550.06;;;-0.62;100.00
6387;BME280;3226;42.162;24.756;2022-12-24T03:12:29;99562.53;;;-0.51;100.00
6387;BME280;3226;42.162;24.756;2022-12-24T03:14:59;99562.78;;;-0.35;100.00
6387;BME280;3226;42.162;24.756;2022-12-24T03:17:30;99556.72;;;-0.34;100.00
6387;BME280;3226;42.162;24.756;2022-12-24T03:20:01;99544.94;;;-0.17;100.00
6387;BME280;3226;42.162;24.756;2022-12-24T03:22:31;99529.59;;;-0.42;99.60
6387;BME280;3226;42.162;24.756;2022-12-24T03:25:01;99534.88;;;-0.46;100.00
6387;BME280;3226;42.162;24.756;2022-12-24T03:27:30;99529.56;;;-0.41;100.00
6387;BME280;3226;42.162;24.756;2022-12-24T03:30:01;99531.88;;;-0.57;100.00
6387;BME280;3226;42.162;24.756;2022-12-24T03:32:31;99539.72;;;-0.60;100.00
6387;BME280;3226;42.162;24.756;2022-12-24T03:34:59;99539.47;;;-0.54;100.00
6387;BME280;3226;42.162;24.756;2022-12-24T03:37:28;99541.41;;;-0.37;100.00
6387;BME280;3226;42.162;24.756;2022-12-24T03:39:55;99523.56;;;-0.41;100.00
6387;BME280;3226;42.162;24.756;2022-12-24T03:42:24;99514.56;;;-0.76;100.00
6387;BME280;3226;42.162;24.756;2022-12-24T03:44:52;99537.78;;;-0.77;100.00
6387;BME280;3226;42.162;24.756;2022-12-24T03:47:20;99539.88;;;-0.65;100.00
6387;BME280;3226;42.162;24.756;2022-12-24T03:49:49;99529.88;;;-0.73;100.00
6387;BME280;3226;42.162;24.756;2022-12-24T03:52:17;99536.28;;;-0.61;100.00
6387;BME280;3226;42.162;24.756;2022-12-24T03:54:45;99532.25;;;-0.44;100.00
6387;BME280;3226;42.162;24.756;2022-12-24T03:57:13;99540.38;;;-0.33;100.00
6387;BME280;3226;42.162;24.756;2022-12-24T03:59:41;99528.59;;;-0.38;100.00
6387;BME280;3226;42.162;24.756;2022-12-24T04:02:09;99503.41;;;-0.52;100.00
6387;BME280;3226;42.162;24.756;2022-12-24T04:04:37;99539.47;;;-0.32;100.00
6387;BME280;3226;42.162;24.756;2022-12-24T04:07:07;99537.31;;;-0.20;100.00
6387;BME280;3226;42.162;24.756;2022-12-24T04:09:35;99531.38;;;-0.22;100.00
6387;BME280;3226;42.162;24.756;2022-12-24T04:12:04;99532.84;;;-0.37;100.00
6387;BME280;3226;42.162;24.756;2022-12-24T04:14:32;99537.13;;;-0.16;100.00
6387;BME280;3226;42.162;24.756;2022-12-24T04:17:00;99540.31;;;-0.09;99.77
6387;BME280;3226;42.162;24.756;2022-12-24T04:19:28;99523.38;;;-0.15;99.99
6387;BME280;3226;42.162;24.756;2022-12-24T04:21:56;99532.72;;;-0.12;99.02
6387;BME280;3226;42.162;24.756;2022-12-24T04:24:25;99537.53;;;-0.04;99.13
6387;BME280;3226;42.162;24.756;2022-12-24T04:26:53;99537.31;;;-0.20;99.29
6387;BME280;3226;42.162;24.756;2022-12-24T04:29:21;99543.03;;;-0.12;98.44
6387;BME280;3226;42.162;24.756;2022-12-24T04:31:49;99545.28;;;-0.26;98.94
6387;BME280;3226;42.162;24.756;2022-12-24T04:34:18;99552.09;;;-0.25;98.84
6387;BME280;3226;42.162;24.756;2022-12-24T04:36:46;99544.34;;;-0.24;99.26
6387;BME280;3226;42.162;24.756;2022-12-24T04:39:14;99544.94;;;-0.17;98.38
6387;BME280;3226;42.162;24.756;2022-12-24T04:41:43;99541.34;;;-0.35;98.96
6387;BME280;3226;42.162;24.756;2022-12-24T04:44:11;99539.91;;;-0.42;99.96
6387;BME280;3226;42.162;24.756;2022-12-24T04:46:39;99551.44;;;-0.31;99.72
6387;BME280;3226;42.162;24.756;2022-12-24T04:49:08;99538.28;;;-0.45;99.69
6387;BME280;3226;42.162;24.756;2022-12-24T04:51:36;99559.41;;;-0.59;100.00
6387;BME280;3226;42.162;24.756;2022-12-24T04:54:04;99556.94;;;-0.62;100.00
6387;BME280;3226;42.162;24.756;2022-12-24T04:56:32;99541.81;;;-0.70;100.00
6387;BME280;3226;42.162;24.756;2022-12-24T04:59:02;99544.91;;;-0.62;100.00
6387;BME280;3226;42.162;24.756;2022-12-24T05:01:31;99545.00;;;-0.41;100.00
6387;BME280;3226;42.162;24.756;2022-12-24T05:04:00;99562.88;;;-0.38;100.00
6387;BME280;3226;42.162;24.756;2022-12-24T05:06:30;99548.47;;;-0.42;100.00
6387;BME280;3226;42.162;24.756;2022-12-24T05:08:59;99553.91;;;-0.50;100.00
6387;BME280;3226;42.162;24.756;2022-12-24T05:11:27;99557.09;;;-0.43;100.00
6387;BME280;3226;42.162;24.756;2022-12-24T05:13:55;99560.25;;;-0.36;99.51
6387;BME280;3226;42.162;24.756;2022-12-24T05:16:25;99555.03;;;-0.35;99.99
6387;BME280;3226;42.162;24.756;2022-12-24T05:18:53;99553.72;;;-0.23;100.00
6387;BME280;3226;42.162;24.756;2022-12-24T05:21:22;99558.03;;;-0.23;99.84
6387;BME280;3226;42.162;24.756;2022-12-24T05:23:51;99553.44;;;-0.15;99.00
6387;BME280;3226;42.162;24.756;2022-12-24T05:26:40;99547.19;;;-0.09;98.19
6387;BME280;3226;42.162;24.756;2022-12-24T05:29:09;99554.25;;;-0.15;97.86
6387;BME280;3226;42.162;24.756;2022-12-24T05:31:41;99561.63;;;-0.27;97.93
6387;BME280;3226;42.162;24.756;2022-12-24T05:34:11;99560.03;;;-0.30;99.08
6387;BME280;3226;42.162;24.756;2022-12-24T05:36:40;99566.13;;;-0.33;98.57
6387;BME280;3226;42.162;24.756;2022-12-24T05:39:09;99550.25;;;-0.22;97.94
6387;BME280;3226;42.162;24.756;2022-12-24T05:41:42;99560.59;;;-0.23;97.92
6387;BME280;3226;42.162;24.756;2022-12-24T05:44:10;99566.34;;;-0.17;98.05
6387;BME280;3226;42.162;24.756;2022-12-24T05:46:39;99560.69;;;-0.25;97.86
6387;BME280;3226;42.162;24.756;2022-12-24T05:49:07;99551.94;;;-0.43;97.98
6387;BME280;3226;42.162;24.756;2022-12-24T05:51:35;99559.78;;;-0.46;98.34
6387;BME280;3226;42.162;24.756;2022-12-24T05:54:05;99565.88;;;-0.49;97.83
6387;BME280;3226;42.162;24.756;2022-12-24T05:56:33;99547.34;;;-0.81;99.40
6387;BME280;3226;42.162;24.756;2022-12-24T05:59:01;99577.47;;;-0.61;99.85
6387;BME280;3226;42.162;24.756;2022-12-24T06:01:29;99578.28;;;-0.82;100.00
6387;BME280;3226;42.162;24.756;2022-12-24T06:03:59;99582.06;;;-0.69;100.00
6387;BME280;3226;42.162;24.756;2022-12-24T06:06:27;99581.81;;;-0.63;100.00
6387;BME280;3226;42.162;24.756;2022-12-24T06:08:56;99588.75;;;-0.65;100.00
6387;BME280;3226;42.162;24.756;2022-12-24T06:11:26;99589.94;;;-0.27;100.00
6387;BME280;3226;42.162;24.756;2022-12-24T06:13:55;99601.09;;;-0.27;100.00
6387;BME280;3226;42.162;24.756;2022-12-24T06:16:24;99599.88;;;-0.18;99.67
6387;BME280;3226;42.162;24.756;2022-12-24T06:18:52;99596.75;;;-0.26;98.69
6387;BME280;3226;42.162;24.756;2022-12-24T06:21:22;99570.31;;;-0.30;97.78
6387;BME280;3226;42.162;24.756;2022-12-24T06:23:50;99580.84;;;-0.14;97.61
6387;BME280;3226;42.162;24.756;2022-12-24T06:26:20;99570.72;;;-0.63;98.36
6387;BME280;3226;42.162;24.756;2022-12-24T06:28:49;99593.16;;;-0.22;98.06
6387;BME280;3226;42.162;24.756;2022-12-24T06:31:19;99594.50;;;-0.12;98.50
6387;BME280;3226;42.162;24.756;2022-12-24T06:33:48;99590.38;;;0.06;96.92
6387;BME280;3226;42.162;24.756;2022-12-24T06:36:18;99592.34;;;-0.01;96.37
6387;BME280;3226;42.162;24.756;2022-12-24T06:38:48;99592.59;;;0.14;96.53
6387;BME280;3226;42.162;24.756;2022-12-24T06:41:17;99595.44;;;0.08;97.23
6387;BME280;3226;42.162;24.756;2022-12-24T06:43:47;99606.31;;;0.37;97.13
6387;BME280;3226;42.162;24.756;2022-12-24T06:46:15;99599.59;;;0.33;97.66
6387;BME280;3226;42.162;24.756;2022-12-24T06:48:44;99590.66;;;0.62;96.61
6387;BME280;3226;42.162;24.756;2022-12-24T06:51:14;99604.97;;;1.09;94.38
6387;BME280;3226;42.162;24.756;2022-12-24T06:53:42;99594.47;;;1.71;92.11
6387;BME280;3226;42.162;24.756;2022-12-24T06:56:12;99597.19;;;2.05;88.92
6387;BME280;3226;42.162;24.756;2022-12-24T06:58:41;99589.31;;;1.33;89.98
6387;BME280;3226;42.162;24.756;2022-12-24T07:01:11;99595.81;;;1.61;91.33
6387;BME280;3226;42.162;24.756;2022-12-24T07:03:39;99592.66;;;1.54;91.04
6387;BME280;3226;42.162;24.756;2022-12-24T07:06:14;99588.94;;;1.41;91.30
6387;BME280;3226;42.162;24.756;2022-12-24T07:08:42;99587.22;;;1.41;91.62
6387;BME280;3226;42.162;24.756;2022-12-24T07:11:12;99589.84;;;1.59;92.31
6387;BME280;3226;42.162;24.756;2022-12-24T07:13:40;99589.59;;;1.65;91.63
6387;BME280;3226;42.162;24.756;2022-12-24T07:16:08;99588.50;;;1.88;90.44
6387;BME280;3226;42.162;24.756;2022-12-24T07:18:36;99598.31;;;1.99;89.71
6387;BME280;3226;42.162;24.756;2022-12-24T07:21:05;99588.56;;;1.87;90.05
6387;BME280;3226;42.162;24.756;2022-12-24T07:23:33;99596.28;;;1.69;90.55
6387;BME280;3226;42.162;24.756;2022-12-24T07:26:03;99598.13;;;1.85;90.49
6387;BME280;3226;42.162;24.756;2022-12-24T07:28:33;99589.41;;;1.87;90.07
6387;BME280;3226;42.162;24.756;2022-12-24T07:31:01;99593.88;;;2.21;89.71
6387;BME280;3226;42.162;24.756;2022-12-24T07:33:29;99599.56;;;2.45;88.60
6387;BME280;3226;42.162;24.756;2022-12-24T07:35:59;99589.38;;;2.42;87.88
6387;BME280;3226;42.162;24.756;2022-12-24T07:38:28;99574.34;;;2.33;87.19
6387;BME280;3226;42.162;24.756;2022-12-24T07:40:57;99595.84;;;2.33;88.39
6387;BME280;3226;42.162;24.756;2022-12-24T07:43:26;99600.06;;;2.87;87.74
6387;BME280;3226;42.162;24.756;2022-12-24T07:45:56;99592.50;;;3.50;85.42
6387;BME280;3226;42.162;24.756;2022-12-24T07:48:25;99603.00;;;3.95;83.26
6387;BME280;3226;42.162;24.756;2022-12-24T07:50:54;99600.28;;;4.12;81.49
6387;BME280;3226;42.162;24.756;2022-12-24T07:53:22;99594.16;;;4.29;82.16
6387;BME280;3226;42.162;24.756;2022-12-24T07:55:51;99607.63;;;3.89;82.38
6387;BME280;3226;42.162;24.756;2022-12-24T07:58:19;99605.63;;;3.79;82.74
6387;BME280;3226;42.162;24.756;2022-12-24T08:00:48;99610.84;;;3.93;82.37
6387;BME280;3226;42.162;24.756;2022-12-24T08:03:18;99598.56;;;3.97;81.92
6387;BME280;3226;42.162;24.756;2022-12-24T08:05:47;99623.38;;;4.17;81.88
6387;BME280;3226;42.162;24.756;2022-12-24T08:08:15;99616.75;;;4.27;81.14
6387;BME280;3226;42.162;24.756;2022-12-24T08:10:44;99633.88;;;4.60;80.90
6387;BME280;3226;42.162;24.756;2022-12-24T08:13:12;99624.91;;;4.66;81.04
6387;BME280;3226;42.162;24.756;2022-12-24T08:15:40;99641.84;;;4.72;80.17
6387;BME280;3226;42.162;24.756;2022-12-24T08:18:08;99639.44;;;4.69;80.87
6387;BME280;3226;42.162;24.756;2022-12-24T08:20:39;99644.63;;;4.69;80.90
6387;BME280;3226;42.162;24.756;2022-12-24T08:23:08;99640.78;;;4.90;80.50
6387;BME280;3226;42.162;24.756;2022-12-24T08:25:36;99639.50;;;4.83;80.43
6387;BME280;3226;42.162;24.756;2022-12-24T08:28:05;99649.13;;;4.96;80.57
6387;BME280;3226;42.162;24.756;2022-12-24T08:30:33;99635.06;;;5.00;80.58
6387;BME280;3226;42.162;24.756;2022-12-24T08:33:02;99634.69;;;5.06;81.02
6387;BME280;3226;42.162;24.756;2022-12-24T08:35:30;99639.50;;;4.83;79.67
6387;BME280;3226;42.162;24.756;2022-12-24T08:37:59;99633.88;;;4.60;80.42
6387;BME280;3226;42.162;24.756;2022-12-24T08:40:27;99636.84;;;4.54;81.52
6387;BME280;3226;42.162;24.756;2022-12-24T08:42:55;99631.78;;;4.82;80.69
6387;BME280;3226;42.162;24.756;2022-12-24T08:45:23;99627.41;;;4.68;80.35
6387;BME280;3226;42.162;24.756;2022-12-24T08:47:51;99624.69;;;4.55;80.61
6387;BME280;3226;42.162;24.756;2022-12-24T08:50:19;99620.47;;;4.68;80.34
6387;BME280;3226;42.162;24.756;2022-12-24T08:52:47;99622.72;;;4.89;80.55
6387;BME280;3226;42.162;24.756;2022-12-24T08:55:17;99619.38;;;5.16;79.31
6387;BME280;3226;42.162;24.756;2022-12-24T08:57:45;99609.66;;;5.19;78.62
6387;BME280;3226;42.162;24.756;2022-12-24T09:00:14;99610.13;;;4.97;79.01
6387;BME280;3226;42.162;24.756;2022-12-24T09:02:42;99609.47;;;5.23;78.82
6387;BME280;3226;42.162;24.756;2022-12-24T09:05:10;99608.53;;;5.24;78.10
6387;BME280;3226;42.162;24.756;2022-12-24T09:07:38;99616.13;;;4.98;78.84
6387;BME280;3226;42.162;24.756;2022-12-24T09:10:07;99611.06;;;4.96;79.25
6387;BME280;3226;42.162;24.756;2022-12-24T09:12:37;99615.31;;;4.97;78.89
6387;BME280;3226;42.162;24.756;2022-12-24T09:15:06;99608.91;;;5.03;79.48
6387;BME280;3226;42.162;24.756;2022-12-24T09:17:35;99597.13;;;5.41;79.06
6387;BME280;3226;42.162;24.756;2022-12-24T09:20:04;99603.94;;;5.56;77.74
6387;BME280;3226;42.162;24.756;2022-12-24T09:22:33;99605.88;;;5.67;77.20
6387;BME280;3226;42.162;24.756;2022-12-24T09:25:02;99600.50;;;5.70;76.46
6387;BME280;3226;42.162;24.756;2022-12-24T09:27:31;99596.03;;;5.72;76.35
6387;BME280;3226;42.162;24.756;2022-12-24T09:30:00;99594.03;;;5.90;75.70
6387;BME280;3226;42.162;24.756;2022-12-24T09:32:28;99593.75;;;5.95;75.50
6387;BME280;3226;42.162;24.756;2022-12-24T09:34:56;99593.13;;;6.19;75.77
6387;BME280;3226;42.162;24.756;2022-12-24T09:37:24;99580.97;;;6.32;74.48
6387;BME280;3226;42.162;24.756;2022-12-24T09:39:52;99577.44;;;6.33;73.49
6387;BME280;3226;42.162;24.756;2022-12-24T09:42:27;99582.25;;;6.53;73.62
6387;BME280;3226;42.162;24.756;2022-12-24T09:45:05;99569.84;;;6.30;73.70
6387;BME280;3226;42.162;24.756;2022-12-24T09:47:38;99559.00;;;6.24;73.51
6387;BME280;3226;42.162;24.756;2022-12-24T09:50:22;99575.78;;;6.45;73.50
6387;BME280;3226;42.162;24.756;2022-12-24T09:52:53;99560.78;;;6.49;72.93
6387;BME280;3226;42.162;24.756;2022-12-24T09:55:27;99564.88;;;6.79;72.53
6387;BME280;3226;42.162;24.756;2022-12-24T09:57:58;99561.31;;;6.80;72.50
6387;BME280;3226;42.162;24.756;2022-12-24T10:00:31;99560.28;;;6.96;71.47
6387;BME280;3226;42.162;24.756;2022-12-24T10:03:00;99556.25;;;6.91;71.33
6387;BME280;3226;42.162;24.756;2022-12-24T10:05:34;99544.66;;;6.96;71.31
6387;BME280;3226;42.162;24.756;2022-12-24T10:08:12;99552.34;;;6.97;71.13
6387;BME280;3226;42.162;24.756;2022-12-24T10:10:50;99545.13;;;7.27;70.28
6387;BME280;3226;42.162;24.756;2022-12-24T10:13:29;99545.28;;;7.36;70.00
6387;BME280;3226;42.162;24.756;2022-12-24T10:16:10;99543.47;;;7.63;69.20
6387;BME280;3226;42.162;24.756;2022-12-24T10:18:44;99542.84;;;7.59;68.67
6387;BME280;3226;42.162;24.756;2022-12-24T10:21:21;99538.38;;;7.48;68.95
6387;BME280;3226;42.162;24.756;2022-12-24T10:23:57;99520.91;;;7.37;68.83
6387;BME280;3226;42.162;24.756;2022-12-24T10:26:31;99533.06;;;7.50;68.58
6387;BME280;3226;42.162;24.756;2022-12-24T10:29:09;99528.44;;;7.29;68.79
6387;BME280;3226;42.162;24.756;2022-12-24T10:31:47;99524.47;;;6.86;69.72
6387;BME280;3226;42.162;24.756;2022-12-24T10:34:21;99532.25;;;6.86;70.73
6387;BME280;3226;42.162;24.756;2022-12-24T10:36:50;99534.19;;;7.21;69.93
6387;BME280;3226;42.162;24.756;2022-12-24T10:39:20;99530.34;;;7.51;69.76
6387;BME280;3226;42.162;24.756;2022-12-24T10:41:51;99521.53;;;7.41;69.90
6387;BME280;3226;42.162;24.756;2022-12-24T10:44:23;99526.31;;;7.47;68.67
6387;BME280;3226;42.162;24.756;2022-12-24T10:46:53;99522.47;;;7.64;68.93
6387;BME280;3226;42.162;24.756;2022-12-24T10:49:30;99522.47;;;7.89;67.75
6387;BME280;3226;42.162;24.756;2022-12-24T10:52:02;99525.25;;;7.74;67.92
6387;BME280;3226;42.162;24.756;2022-12-24T10:54:32;99514.19;;;7.95;67.18
6387;BME280;3226;42.162;24.756;2022-12-24T10:57:22;99526.56;;;8.04;66.79
6387;BME280;3226;42.162;24.756;2022-12-24T10:59:53;99524.75;;;7.93;66.92
6387;BME280;3226;42.162;24.756;2022-12-24T11:02:28;99497.63;;;7.72;67.58
6387;BME280;3226;42.162;24.756;2022-12-24T11:04:57;99517.38;;;7.87;67.78
6387;BME280;3226;42.162;24.756;2022-12-24T11:07:27;99513.38;;;7.94;67.50
6387;BME280;3226;42.162;24.756;2022-12-24T11:09:57;99523.41;;;7.88;67.68
6387;BME280;3226;42.162;24.756;2022-12-24T11:12:26;99529.41;;;7.77;67.96
6387;BME280;3226;42.162;24.756;2022-12-24T11:15:02;99525.13;;;8.00;67.64
6387;BME280;3226;42.162;24.756;2022-12-24T11:17:33;99524.44;;;8.09;66.85
6387;BME280;3226;42.162;24.756;2022-12-24T11:20:01;99518.03;;;8.14;66.64
6387;BME280;3226;42.162;24.756;2022-12-24T11:22:31;99504.59;;;8.31;65.72
6387;BME280;3226;42.162;24.756;2022-12-24T11:25:03;99507.78;;;8.46;65.61
6387;BME280;3226;42.162;24.756;2022-12-24T11:27:39;99514.16;;;8.66;65.22
6387;BME280;3226;42.162;24.756;2022-12-24T11:30:20;99512.00;;;8.83;65.03
6387;BME280;3226;42.162;24.756;2022-12-24T11:33:09;99517.22;;;8.72;64.72
6387;BME280;3226;42.162;24.756;2022-12-24T11:35:45;99499.53;;;8.52;65.35
6387;BME280;3226;42.162;24.756;2022-12-24T11:38:18;99497.47;;;8.33;66.34
6387;BME280;3226;42.162;24.756;2022-12-24T11:40:48;99475.66;;;7.87;67.67
6387;BME280;3226;42.162;24.756;2022-12-24T11:43:19;99497.19;;;8.25;66.78
6387;BME280;3226;42.162;24.756;2022-12-24T11:45:48;99490.34;;;8.35;66.31
6387;BME280;3226;42.162;24.756;2022-12-24T11:48:29;99490.41;;;8.70;65.51
6387;BME280;3226;42.162;24.756;2022-12-24T11:50:58;99483.47;;;8.46;66.10
6387;BME280;3226;42.162;24.756;2022-12-24T11:53:33;99492.53;;;8.53;65.92
6387;BME280;3226;42.162;24.756;2022-12-24T11:56:05;99497.03;;;8.85;65.25
6387;BME280;3226;42.162;24.756;2022-12-24T11:58:37;99490.63;;;8.89;65.42
6387;BME280;3226;42.162;24.756;2022-12-24T12:01:15;99487.31;;;8.76;64.95
6387;BME280;3226;42.162;24.756;2022-12-24T12:03:47;99478.50;;;8.43;66.58
6387;BME280;3226;42.162;24.756;2022-12-24T12:06:25;99487.75;;;8.47;67.28
6387;BME280;3226;42.162;24.756;2022-12-24T12:08:56;99488.31;;;8.39;67.78
6387;BME280;3226;42.162;24.756;2022-12-24T12:11:27;99474.63;;;8.60;66.64
6387;BME280;3226;42.162;24.756;2022-12-24T12:13:57;99475.88;;;8.31;68.26
6387;BME280;3226;42.162;24.756;2022-12-24T12:16:31;99477.78;;;8.41;68.45
6387;BME280;3226;42.162;24.756;2022-12-24T12:19:24;99481.81;;;8.33;68.60
6387;BME280;3226;42.162;24.756;2022-12-24T12:21:52;99484.53;;;8.43;68.68
6387;BME280;3226;42.162;24.756;2022-12-24T12:24:24;99482.69;;;8.68;67.99
6387;BME280;3226;42.162;24.756;2022-12-24T12:27:04;99482.09;;;8.87;67.12
6387;BME280;3226;42.162;24.756;2022-12-24T12:29:39;99485.41;;;8.89;67.13
6387;BME280;3226;42.162;24.756;2022-12-24T12:32:15;99484.31;;;9.03;66.97
6387;BME280;3226;42.162;24.756;2022-12-24T12:34:58;99470.31;;;9.04;66.39
6387;BME280;3226;42.162;24.756;2022-12-24T12:37:33;99484.53;;;9.23;66.33
6387;BME280;3226;42.162;24.756;2022-12-24T12:40:11;99482.38;;;9.28;65.97
6387;BME280;3226;42.162;24.756;2022-12-24T12:42:39;99474.94;;;8.89;67.44
6387;BME280;3226;42.162;24.756;2022-12-24T12:45:32;99484.34;;;8.69;68.09
6387;BME280;3226;42.162;24.756;2022-12-24T12:48:14;99485.16;;;8.92;67.59
6387;BME280;3226;42.162;24.756;2022-12-24T12:50:53;99495.22;;;9.08;65.99
6387;BME280;3226;42.162;24.756;2022-12-24T12:53:40;99491.91;;;8.83;67.59
6387;BME280;3226;42.162;24.756;2022-12-24T12:56:22;99471.88;;;8.50;69.51
6387;BME280;3226;42.162;24.756;2022-12-24T12:58:55;99463.41;;;8.23;69.29
6387;BME280;3226;42.162;24.756;2022-12-24T13:01:33;99474.81;;;8.34;69.43
6387;BME280;3226;42.162;24.756;2022-12-24T13:04:39;99473.00;;;8.23;70.03
6387;BME280;3226;42.162;24.756;2022-12-24T13:07:37;99486.28;;;8.20;70.58
6387;BME280;3226;42.162;24.756;2022-12-24T13:19:58;99491.72;;;8.05;70.99
6387;BME280;3226;42.162;24.756;2022-12-24T13:22:32;99494.22;;;7.82;71.92
6387;BME280;3226;42.162;24.756;2022-12-24T13:25:00;99512.31;;;7.97;71.67
6387;BME280;3226;42.162;24.756;2022-12-24T13:27:30;99516.28;;;7.90;72.27
6387;BME280;3226;42.162;24.756;2022-12-24T13:30:00;99514.06;;;7.96;71.68
6387;BME280;3226;42.162;24.756;2022-12-24T13:32:46;99523.22;;;8.02;71.71
6387;BME280;3226;42.162;24.756;2022-12-24T13:35:32;99522.34;;;7.90;71.74
6387;BME280;3226;42.162;24.756;2022-12-24T13:38:31;99525.78;;;7.91;72.47
6387;BME280;3226;42.162;24.756;2022-12-24T13:44:22;99523.75;;;8.30;70.88
6387;BME280;3226;42.162;24.756;2022-12-24T13:46:58;99529.72;;;8.32;70.92
6387;BME280;3226;42.162;24.756;2022-12-24T13:49:32;99523.44;;;8.46;70.79
6387;BME280;3226;42.162;24.756;2022-12-24T13:52:06;99494.88;;;8.45;70.41
6387;BME280;3226;42.162;24.756;2022-12-24T13:54:37;99521.75;;;8.70;70.27